createdAt,value
2018-03-04T10:46:49.251Z,258.75
2018-03-04T10:48:03.532Z,253.13
2018-03-04T10:48:44.745Z,230.63
2018-03-04T10:49:49.074Z,213.75
2018-03-04T10:51:01.979Z,202.50
2018-03-04T10:52:02.605Z,196.88
2018-03-04T10:52:44.630Z,202.50
2018-03-04T10:53:45.714Z,219.38
2018-03-04T10:54:44.465Z,236.25
2018-03-04T10:55:44.428Z,241.88
2018-03-04T10:56:43.888Z,253.13
2018-03-04T10:59:54.521Z,286.88
2018-03-04T11:00:31.808Z,281.25
2018-03-04T11:01:30.950Z,309.38
2018-03-04T11:02:26.838Z,320.63
2018-03-04T11:03:30.097Z,303.75
2018-03-04T11:04:27.074Z,348.75
2018-03-04T11:05:26.260Z,337.50
2018-03-04T11:06:26.159Z,331.88
2018-03-04T11:07:26.300Z,360.00
2018-03-04T11:08:26.189Z,371.25
2018-03-04T11:09:26.162Z,410.63
2018-03-04T11:10:25.811Z,416.25
2018-03-04T11:11:25.807Z,433.13
2018-03-04T11:12:43.943Z,438.75
2018-03-04T11:13:26.143Z,421.88
2018-03-04T11:16:14.790Z,348.75
2018-03-04T11:16:52.114Z,303.75
2018-03-04T11:17:52.077Z,281.25
2018-03-04T11:18:52.100Z,281.25
2018-03-04T11:20:13.879Z,270.00
2018-03-04T11:20:52.044Z,264.38
2018-03-04T11:23:15.142Z,258.75
2018-03-04T11:29:19.318Z,185.63
2018-03-04T11:30:19.808Z,180.00
2018-03-04T11:31:19.048Z,174.38
2018-03-04T11:32:21.073Z,174.38
2018-03-04T11:33:19.915Z,174.38
2018-03-04T11:36:14.489Z,168.75
2018-03-04T11:37:25.987Z,168.75
2018-03-04T11:38:15.515Z,168.75
2018-03-04T11:40:37.311Z,168.75
2018-03-04T11:41:37.303Z,168.75
2018-03-04T11:43:03.545Z,174.38
2018-03-04T11:46:15.861Z,168.75
2018-03-04T11:48:51.610Z,168.75
2018-03-04T11:51:23.402Z,168.75
2018-03-04T11:52:10.323Z,168.75
2018-03-04T11:53:10.185Z,168.75
2018-03-04T11:54:10.850Z,174.38
2018-03-04T11:55:09.880Z,174.38
2018-03-04T11:57:38.743Z,174.38
2018-03-04T11:58:45.191Z,174.38
2018-03-04T18:29:08.646Z,0.00
2018-03-04T18:29:30.673Z,0.00
2018-03-04T18:32:24.701Z,0.00
2018-03-04T18:33:18.866Z,0.00
2018-03-04T18:39:07.407Z,0.00
2018-03-04T18:39:59.661Z,0.00
2018-03-04T18:40:42.035Z,0.00
2018-03-04T18:41:47.402Z,0.00
2018-03-04T18:44:49.010Z,0.00
2018-03-04T18:45:48.278Z,0.00
2018-03-04T18:46:42.657Z,0.00
2018-03-04T18:47:46.356Z,0.00
2018-03-04T18:49:41.547Z,0.00
2018-03-04T18:51:02.967Z,0.00
2018-03-04T18:51:42.371Z,0.00
2018-03-04T18:52:40.792Z,0.00
2018-03-04T18:53:41.565Z,0.00
2018-03-04T18:58:25.469Z,0.00
2018-03-04T18:59:32.546Z,0.00
